sensor_id;sensor_type;location;lat;lon;timestamp;P1;durP1;ratioP1;P2;durP2;ratioP2
4186;SDS011;2107;52.306;10.484;2023-08-07T00:00:04;0.00;;;0.00;;
4186;SDS011;2107;52.306;10.484;2023-08-07T00:02:34;0.00;;;0.00;;
4186;SDS011;2107;52.306;10.484;2023-08-07T00:05:01;0.00;;;0.00;;
4186;SDS011;2107;52.306;10.484;2023-08-07T00:07:29;0.00;;;0.00;;
4186;SDS011;2107;52.306;10.484;2023-08-07T00:09:56;0.00;;;0.00;;
4186;SDS011;2107;52.306;10.484;2023-08-07T00:12:23;0.00;;;0.00;;
4186;SDS011;2107;52.306;10.484;2023-08-07T00:14:50;0.00;;;0.00;;
4186;SDS011;2107;52.306;10.484;2023-08-07T00:17:17;0.00;;;0.00;;
4186;SDS011;2107;52.306;10.484;2023-08-07T00:19:43;0.00;;;0.00;;
4186;SDS011;2107;52.306;10.484;2023-08-07T00:22:10;0.00;;;0.00;;
4186;SDS011;2107;52.306;10.484;2023-08-07T00:24:38;0.00;;;0.00;;
4186;SDS011;2107;52.306;10.484;2023-08-07T00:27:05;0.00;;;0.00;;
4186;SDS011;2107;52.306;10.484;2023-08-07T00:29:35;0.00;;;0.00;;
4186;SDS011;2107;52.306;10.484;2023-08-07T00:32:01;0.00;;;0.00;;
4186;SDS011;2107;52.306;10.484;2023-08-07T00:34:28;0.00;;;0.00;;
4186;SDS011;2107;52.306;10.484;2023-08-07T00:36:55;0.00;;;0.00;;
4186;SDS011;2107;52.306;10.484;2023-08-07T00:39:22;0.00;;;0.00;;
4186;SDS011;2107;52.306;10.484;2023-08-07T00:41:51;0.00;;;0.00;;
4186;SDS011;2107;52.306;10.484;2023-08-07T00:44:18;0.00;;;0.00;;
4186;SDS011;2107;52.306;10.484;2023-08-07T00:46:45;0.00;;;0.00;;
4186;SDS011;2107;52.306;10.484;2023-08-07T00:49:12;0.00;;;0.00;;
4186;SDS011;2107;52.306;10.484;2023-08-07T00:51:40;0.10;;;0.10;;
4186;SDS011;2107;52.306;10.484;2023-08-07T00:54:07;0.10;;;0.10;;
4186;SDS011;2107;52.306;10.484;2023-08-07T00:56:37;0.00;;;0.00;;
4186;SDS011;2107;52.306;10.484;2023-08-07T00:59:07;0.00;;;0.00;;
4186;SDS011;2107;52.306;10.484;2023-08-07T01:01:34;0.00;;;0.00;;
4186;SDS011;2107;52.306;10.484;2023-08-07T01:04:02;0.00;;;0.00;;
4186;SDS011;2107;52.306;10.484;2023-08-07T01:06:29;0.00;;;0.00;;
4186;SDS011;2107;52.306;10.484;2023-08-07T01:08:56;0.00;;;0.00;;
4186;SDS011;2107;52.306;10.484;2023-08-07T01:11:24;0.00;;;0.00;;
4186;SDS011;2107;52.306;10.484;2023-08-07T01:14:00;0.00;;;0.00;;
4186;SDS011;2107;52.306;10.484;2023-08-07T01:16:37;0.00;;;0.00;;
4186;SDS011;2107;52.306;10.484;2023-08-07T01:19:14;0.00;;;0.00;;
4186;SDS011;2107;52.306;10.484;2023-08-07T01:21:54;0.00;;;0.00;;
4186;SDS011;2107;52.306;10.484;2023-08-07T01:24:30;0.00;;;0.00;;
4186;SDS011;2107;52.306;10.484;2023-08-07T01:26:57;0.00;;;0.00;;
4186;SDS011;2107;52.306;10.484;2023-08-07T01:29:34;0.00;;;0.00;;
4186;SDS011;2107;52.306;10.484;2023-08-07T01:32:06;0.00;;;0.00;;
4186;SDS011;2107;52.306;10.484;2023-08-07T01:34:35;0.00;;;0.00;;
4186;SDS011;2107;52.306;10.484;2023-08-07T01:37:06;0.00;;;0.00;;
4186;SDS011;2107;52.306;10.484;2023-08-07T01:39:33;0.00;;;0.00;;
4186;SDS011;2107;52.306;10.484;2023-08-07T01:42:03;0.00;;;0.00;;
4186;SDS011;2107;52.306;10.484;2023-08-07T01:44:30;0.00;;;0.00;;
4186;SDS011;2107;52.306;10.484;2023-08-07T01:46:57;0.00;;;0.00;;
4186;SDS011;2107;52.306;10.484;2023-08-07T01:49:24;0.00;;;0.00;;
4186;SDS011;2107;52.306;10.484;2023-08-07T01:51:51;0.00;;;0.00;;
4186;SDS011;2107;52.306;10.484;2023-08-07T01:54:19;0.00;;;0.00;;
4186;SDS011;2107;52.306;10.484;2023-08-07T01:56:46;0.00;;;0.00;;
4186;SDS011;2107;52.306;10.484;2023-08-07T01:59:12;0.00;;;0.00;;
4186;SDS011;2107;52.306;10.484;2023-08-07T02:01:39;0.00;;;0.00;;
4186;SDS011;2107;52.306;10.484;2023-08-07T02:04:06;0.00;;;0.00;;
4186;SDS011;2107;52.306;10.484;2023-08-07T02:06:33;0.00;;;0.00;;
4186;SDS011;2107;52.306;10.484;2023-08-07T02:09:00;0.00;;;0.00;;
4186;SDS011;2107;52.306;10.484;2023-08-07T02:11:28;0.00;;;0.00;;
4186;SDS011;2107;52.306;10.484;2023-08-07T02:13:55;0.00;;;0.00;;
4186;SDS011;2107;52.306;10.484;2023-08-07T02:16:22;0.00;;;0.00;;
4186;SDS011;2107;52.306;10.484;2023-08-07T02:18:48;0.00;;;0.00;;
4186;SDS011;2107;52.306;10.484;2023-08-07T02:21:15;0.00;;;0.00;;
4186;SDS011;2107;52.306;10.484;2023-08-07T02:23:42;0.00;;;0.00;;
4186;SDS011;2107;52.306;10.484;2023-08-07T02:26:09;0.00;;;0.00;;
4186;SDS011;2107;52.306;10.484;2023-08-07T02:28:37;0.00;;;0.00;;
4186;SDS011;2107;52.306;10.484;2023-08-07T02:31:04;0.00;;;0.00;;
4186;SDS011;2107;52.306;10.484;2023-08-07T02:33:31;0.00;;;0.00;;
4186;SDS011;2107;52.306;10.484;2023-08-07T02:35:57;0.00;;;0.00;;
4186;SDS011;2107;52.306;10.484;2023-08-07T02:38:24;0.00;;;0.00;;
4186;SDS011;2107;52.306;10.484;2023-08-07T02:40:51;0.00;;;0.00;;
4186;SDS011;2107;52.306;10.484;2023-08-07T02:43:18;0.00;;;0.00;;
4186;SDS011;2107;52.306;10.484;2023-08-07T02:45:46;0.00;;;0.00;;
4186;SDS011;2107;52.306;10.484;2023-08-07T02:48:13;0.00;;;0.00;;
4186;SDS011;2107;52.306;10.484;2023-08-07T02:50:40;0.00;;;0.00;;
4186;SDS011;2107;52.306;10.484;2023-08-07T02:53:07;0.00;;;0.00;;
4186;SDS011;2107;52.306;10.484;2023-08-07T02:55:33;0.00;;;0.00;;
4186;SDS011;2107;52.306;10.484;2023-08-07T02:58:00;0.00;;;0.00;;
4186;SDS011;2107;52.306;10.484;2023-08-07T03:00:27;0.00;;;0.00;;
4186;SDS011;2107;52.306;10.484;2023-08-07T03:02:55;0.00;;;0.00;;
4186;SDS011;2107;52.306;10.484;2023-08-07T03:05:22;0.00;;;0.00;;
4186;SDS011;2107;52.306;10.484;2023-08-07T03:07:49;0.00;;;0.00;;
4186;SDS011;2107;52.306;10.484;2023-08-07T03:10:16;0.00;;;0.00;;
4186;SDS011;2107;52.306;10.484;2023-08-07T03:12:42;0.00;;;0.00;;
4186;SDS011;2107;52.306;10.484;2023-08-07T03:15:09;0.00;;;0.00;;
4186;SDS011;2107;52.306;10.484;2023-08-07T03:17:37;0.00;;;0.00;;
4186;SDS011;2107;52.306;10.484;2023-08-07T03:20:06;0.00;;;0.00;;
4186;SDS011;2107;52.306;10.484;2023-08-07T03:22:33;0.00;;;0.00;;
4186;SDS011;2107;52.306;10.484;2023-08-07T03:25:00;0.00;;;0.00;;
4186;SDS011;2107;52.306;10.484;2023-08-07T03:27:27;0.00;;;0.00;;
4186;SDS011;2107;52.306;10.484;2023-08-07T03:29:54;0.00;;;0.00;;
4186;SDS011;2107;52.306;10.484;2023-08-07T03:32:21;0.00;;;0.00;;
4186;SDS011;2107;52.306;10.484;2023-08-07T03:34:48;0.00;;;0.00;;
4186;SDS011;2107;52.306;10.484;2023-08-07T03:37:16;0.00;;;0.00;;
4186;SDS011;2107;52.306;10.484;2023-08-07T03:39:43;0.00;;;0.00;;
4186;SDS011;2107;52.306;10.484;2023-08-07T03:42:13;0.00;;;0.00;;
4186;SDS011;2107;52.306;10.484;2023-08-07T03:44:40;0.00;;;0.00;;
4186;SDS011;2107;52.306;10.484;2023-08-07T03:47:07;0.00;;;0.00;;
4186;SDS011;2107;52.306;10.484;2023-08-07T03:49:34;0.00;;;0.00;;
4186;SDS011;2107;52.306;10.484;2023-08-07T03:52:01;0.00;;;0.00;;
4186;SDS011;2107;52.306;10.484;2023-08-07T03:54:29;0.00;;;0.00;;
4186;SDS011;2107;52.306;10.484;2023-08-07T03:56:56;0.00;;;0.00;;
4186;SDS011;2107;52.306;10.484;2023-08-07T03:59:23;0.00;;;0.00;;
4186;SDS011;2107;52.306;10.484;2023-08-07T04:01:50;0.00;;;0.00;;
4186;SDS011;2107;52.306;10.484;2023-08-07T04:04:16;0.00;;;0.00;;
4186;SDS011;2107;52.306;10.484;2023-08-07T04:06:43;0.00;;;0.00;;
4186;SDS011;2107;52.306;10.484;2023-08-07T04:09:10;0.00;;;0.00;;
4186;SDS011;2107;52.306;10.484;2023-08-07T04:11:38;0.00;;;0.00;;
4186;SDS011;2107;52.306;10.484;2023-08-07T04:14:06;0.00;;;0.00;;
4186;SDS011;2107;52.306;10.484;2023-08-07T04:16:33;0.00;;;0.00;;
4186;SDS011;2107;52.306;10.484;2023-08-07T04:19:02;0.00;;;0.00;;
4186;SDS011;2107;52.306;10.484;2023-08-07T04:21:29;0.00;;;0.00;;
4186;SDS011;2107;52.306;10.484;2023-08-07T04:23:56;0.00;;;0.00;;
4186;SDS011;2107;52.306;10.484;2023-08-07T04:26:25;0.00;;;0.00;;
4186;SDS011;2107;52.306;10.484;2023-08-07T04:28:53;0.00;;;0.00;;
4186;SDS011;2107;52.306;10.484;2023-08-07T04:31:20;0.00;;;0.00;;
4186;SDS011;2107;52.306;10.484;2023-08-07T04:33:46;0.00;;;0.00;;
4186;SDS011;2107;52.306;10.484;2023-08-07T04:36:13;0.00;;;0.00;;
4186;SDS011;2107;52.306;10.484;2023-08-07T04:38:40;0.00;;;0.00;;
4186;SDS011;2107;52.306;10.484;2023-08-07T04:41:07;0.00;;;0.00;;
4186;SDS011;2107;52.306;10.484;2023-08-07T04:43:34;0.00;;;0.00;;
4186;SDS011;2107;52.306;10.484;2023-08-07T04:46:02;0.00;;;0.00;;
4186;SDS011;2107;52.306;10.484;2023-08-07T04:48:29;0.00;;;0.00;;
4186;SDS011;2107;52.306;10.484;2023-08-07T04:50:56;0.00;;;0.00;;
4186;SDS011;2107;52.306;10.484;2023-08-07T04:53:24;0.00;;;0.00;;
4186;SDS011;2107;52.306;10.484;2023-08-07T04:55:50;0.00;;;0.00;;
4186;SDS011;2107;52.306;10.484;2023-08-07T04:58:17;0.00;;;0.00;;
4186;SDS011;2107;52.306;10.484;2023-08-07T05:00:44;0.00;;;0.00;;
4186;SDS011;2107;52.306;10.484;2023-08-07T05:03:12;0.00;;;0.00;;
4186;SDS011;2107;52.306;10.484;2023-08-07T05:05:40;0.00;;;0.00;;
4186;SDS011;2107;52.306;10.484;2023-08-07T05:08:07;0.00;;;0.00;;
4186;SDS011;2107;52.306;10.484;2023-08-07T05:10:34;0.00;;;0.00;;
4186;SDS011;2107;52.306;10.484;2023-08-07T05:13:01;0.00;;;0.00;;
4186;SDS011;2107;52.306;10.484;2023-08-07T05:15:28;0.00;;;0.00;;
4186;SDS011;2107;52.306;10.484;2023-08-07T05:17:56;0.00;;;0.00;;
4186;SDS011;2107;52.306;10.484;2023-08-07T05:20:24;0.00;;;0.00;;
4186;SDS011;2107;52.306;10.484;2023-08-07T05:22:51;0.00;;;0.00;;
4186;SDS011;2107;52.306;10.484;2023-08-07T05:25:18;0.00;;;0.00;;
4186;SDS011;2107;52.306;10.484;2023-08-07T05:27:45;0.00;;;0.00;;
4186;SDS011;2107;52.306;10.484;2023-08-07T05:30:12;0.00;;;0.00;;
4186;SDS011;2107;52.306;10.484;2023-08-07T05:32:40;0.00;;;0.00;;
4186;SDS011;2107;52.306;10.484;2023-08-07T05:35:07;0.00;;;0.00;;
4186;SDS011;2107;52.306;10.484;2023-08-07T05:37:36;0.00;;;0.00;;
4186;SDS011;2107;52.306;10.484;2023-08-07T05:40:03;0.00;;;0.00;;
4186;SDS011;2107;52.306;10.484;2023-08-07T05:42:31;0.00;;;0.00;;
4186;SDS011;2107;52.306;10.484;2023-08-07T05:44:58;0.00;;;0.00;;
4186;SDS011;2107;52.306;10.484;2023-08-07T05:47:25;0.00;;;0.00;;
4186;SDS011;2107;52.306;10.484;2023-08-07T05:49:51;0.00;;;0.00;;
4186;SDS011;2107;52.306;10.484;2023-08-07T05:52:18;0.00;;;0.00;;
4186;SDS011;2107;52.306;10.484;2023-08-07T05:54:47;0.00;;;0.00;;
4186;SDS011;2107;52.306;10.484;2023-08-07T05:57:13;0.00;;;0.00;;
4186;SDS011;2107;52.306;10.484;2023-08-07T05:59:40;0.00;;;0.00;;
4186;SDS011;2107;52.306;10.484;2023-08-07T06:02:07;0.00;;;0.00;;
4186;SDS011;2107;52.306;10.484;2023-08-07T06:04:36;0.00;;;0.00;;
4186;SDS011;2107;52.306;10.484;2023-08-07T06:07:03;0.00;;;0.00;;
4186;SDS011;2107;52.306;10.484;2023-08-07T06:09:30;0.00;;;0.00;;
4186;SDS011;2107;52.306;10.484;2023-08-07T06:11:58;0.00;;;0.00;;
4186;SDS011;2107;52.306;10.484;2023-08-07T06:14:25;0.00;;;0.00;;
4186;SDS011;2107;52.306;10.484;2023-08-07T06:16:52;0.00;;;0.00;;
4186;SDS011;2107;52.306;10.484;2023-08-07T06:19:19;0.00;;;0.00;;
4186;SDS011;2107;52.306;10.484;2023-08-07T06:21:47;0.00;;;0.00;;
4186;SDS011;2107;52.306;10.484;2023-08-07T06:24:14;0.00;;;0.00;;
4186;SDS011;2107;52.306;10.484;2023-08-07T06:26:41;0.00;;;0.00;;
4186;SDS011;2107;52.306;10.484;2023-08-07T06:29:10;0.00;;;0.00;;
4186;SDS011;2107;52.306;10.484;2023-08-07T06:31:37;0.00;;;0.00;;
4186;SDS011;2107;52.306;10.484;2023-08-07T06:34:04;0.00;;;0.00;;
4186;SDS011;2107;52.306;10.484;2023-08-07T06:36:30;0.00;;;0.00;;
4186;SDS011;2107;52.306;10.484;2023-08-07T06:38:57;0.00;;;0.00;;
4186;SDS011;2107;52.306;10.484;2023-08-07T06:41:24;0.00;;;0.00;;
4186;SDS011;2107;52.306;10.484;2023-08-07T06:43:51;0.00;;;0.00;;
4186;SDS011;2107;52.306;10.484;2023-08-07T06:46:19;0.00;;;0.00;;
4186;SDS011;2107;52.306;10.484;2023-08-07T06:48:49;0.00;;;0.00;;
4186;SDS011;2107;52.306;10.484;2023-08-07T06:51:16;0.00;;;0.00;;
4186;SDS011;2107;52.306;10.484;2023-08-07T06:53:43;0.00;;;0.00;;
4186;SDS011;2107;52.306;10.484;2023-08-07T06:56:09;0.00;;;0.00;;
4186;SDS011;2107;52.306;10.484;2023-08-07T06:58:36;0.00;;;0.00;;
4186;SDS011;2107;52.306;10.484;2023-08-07T07:01:03;0.00;;;0.00;;
4186;SDS011;2107;52.306;10.484;2023-08-07T07:03:32;0.00;;;0.00;;
4186;SDS011;2107;52.306;10.484;2023-08-07T07:05:59;0.00;;;0.00;;
4186;SDS011;2107;52.306;10.484;2023-08-07T07:08:26;0.00;;;0.00;;
4186;SDS011;2107;52.306;10.484;2023-08-07T07:10:53;0.00;;;0.00;;
4186;SDS011;2107;52.306;10.484;2023-08-07T07:13:19;0.00;;;0.00;;
4186;SDS011;2107;52.306;10.484;2023-08-07T07:15:46;0.00;;;0.00;;
4186;SDS011;2107;52.306;10.484;2023-08-07T07:18:19;0.00;;;0.00;;
4186;SDS011;2107;52.306;10.484;2023-08-07T07:20:47;0.00;;;0.00;;
4186;SDS011;2107;52.306;10.484;2023-08-07T07:23:14;0.00;;;0.00;;
4186;SDS011;2107;52.306;10.484;2023-08-07T07:25:41;0.00;;;0.00;;
4186;SDS011;2107;52.306;10.484;2023-08-07T07:28:08;0.00;;;0.00;;
4186;SDS011;2107;52.306;10.484;2023-08-07T07:30:35;0.10;;;0.10;;
4186;SDS011;2107;52.306;10.484;2023-08-07T07:33:04;0.10;;;0.10;;
4186;SDS011;2107;52.306;10.484;2023-08-07T07:35:31;0.20;;;0.20;;
4186;SDS011;2107;52.306;10.484;2023-08-07T07:38:04;0.20;;;0.20;;
4186;SDS011;2107;52.306;10.484;2023-08-07T07:40:32;0.20;;;0.20;;
4186;SDS011;2107;52.306;10.484;2023-08-07T07:43:00;0.30;;;0.30;;
4186;SDS011;2107;52.306;10.484;2023-08-07T07:45:27;0.40;;;0.40;;
4186;SDS011;2107;52.306;10.484;2023-08-07T07:47:54;0.60;;;0.60;;
4186;SDS011;2107;52.306;10.484;2023-08-07T07:50:22;0.73;;;0.73;;
4186;SDS011;2107;52.306;10.484;2023-08-07T07:52:49;0.80;;;0.80;;
4186;SDS011;2107;52.306;10.484;2023-08-07T07:55:17;0.80;;;0.80;;
4186;SDS011;2107;52.306;10.484;2023-08-07T07:57:44;1.00;;;1.00;;
4186;SDS011;2107;52.306;10.484;2023-08-07T08:00:12;0.70;;;0.70;;
4186;SDS011;2107;52.306;10.484;2023-08-07T08:02:39;1.10;;;1.10;;
4186;SDS011;2107;52.306;10.484;2023-08-07T08:05:08;1.57;;;1.57;;
4186;SDS011;2107;52.306;10.484;2023-08-07T08:07:36;1.10;;;1.10;;
4186;SDS011;2107;52.306;10.484;2023-08-07T08:10:06;1.33;;;1.33;;
4186;SDS011;2107;52.306;10.484;2023-08-07T08:12:35;1.23;;;1.23;;
4186;SDS011;2107;52.306;10.484;2023-08-07T08:15:06;0.97;;;0.97;;
4186;SDS011;2107;52.306;10.484;2023-08-07T08:17:34;0.70;;;0.70;;
4186;SDS011;2107;52.306;10.484;2023-08-07T08:20:01;0.70;;;0.70;;
4186;SDS011;2107;52.306;10.484;2023-08-07T08:22:33;0.50;;;0.50;;
4186;SDS011;2107;52.306;10.484;2023-08-07T08:25:01;0.50;;;0.50;;
4186;SDS011;2107;52.306;10.484;2023-08-07T08:27:31;0.40;;;0.40;;
4186;SDS011;2107;52.306;10.484;2023-08-07T08:30:00;0.30;;;0.30;;
4186;SDS011;2107;52.306;10.484;2023-08-07T08:32:27;0.50;;;0.50;;
4186;SDS011;2107;52.306;10.484;2023-08-07T08:34:54;0.50;;;0.50;;
4186;SDS011;2107;52.306;10.484;2023-08-07T08:37:21;0.50;;;0.50;;
4186;SDS011;2107;52.306;10.484;2023-08-07T08:39:48;0.50;;;0.50;;
4186;SDS011;2107;52.306;10.484;2023-08-07T08:42:15;0.50;;;0.50;;
4186;SDS011;2107;52.306;10.484;2023-08-07T08:44:43;0.40;;;0.40;;
4186;SDS011;2107;52.306;10.484;2023-08-07T08:47:16;0.50;;;0.50;;
4186;SDS011;2107;52.306;10.484;2023-08-07T08:49:45;0.50;;;0.50;;
4186;SDS011;2107;52.306;10.484;2023-08-07T08:52:13;0.50;;;0.50;;
4186;SDS011;2107;52.306;10.484;2023-08-07T08:54:42;0.30;;;0.30;;
4186;SDS011;2107;52.306;10.484;2023-08-07T08:57:10;0.30;;;0.30;;
4186;SDS011;2107;52.306;10.484;2023-08-07T08:59:39;0.50;;;0.50;;
4186;SDS011;2107;52.306;10.484;2023-08-07T09:02:07;0.50;;;0.50;;
4186;SDS011;2107;52.306;10.484;2023-08-07T09:04:37;0.53;;;0.53;;
4186;SDS011;2107;52.306;10.484;2023-08-07T09:07:04;0.70;;;0.70;;
4186;SDS011;2107;52.306;10.484;2023-08-07T09:09:31;0.60;;;0.60;;
4186;SDS011;2107;52.306;10.484;2023-08-07T09:11:58;0.60;;;0.60;;
4186;SDS011;2107;52.306;10.484;2023-08-07T09:14:29;0.50;;;0.50;;
4186;SDS011;2107;52.306;10.484;2023-08-07T09:16:59;0.60;;;0.60;;
4186;SDS011;2107;52.306;10.484;2023-08-07T09:19:27;0.50;;;0.50;;
4186;SDS011;2107;52.306;10.484;2023-08-07T09:21:55;0.70;;;0.70;;
4186;SDS011;2107;52.306;10.484;2023-08-07T09:24:22;0.50;;;0.50;;
4186;SDS011;2107;52.306;10.484;2023-08-07T09:26:50;0.40;;;0.40;;
4186;SDS011;2107;52.306;10.484;2023-08-07T09:29:18;0.60;;;0.60;;
4186;SDS011;2107;52.306;10.484;2023-08-07T09:31:45;0.80;;;0.80;;
4186;SDS011;2107;52.306;10.484;2023-08-07T09:34:12;1.10;;;1.10;;
4186;SDS011;2107;52.306;10.484;2023-08-07T09:36:43;1.60;;;1.60;;
4186;SDS011;2107;52.306;10.484;2023-08-07T09:39:11;1.20;;;1.20;;
4186;SDS011;2107;52.306;10.484;2023-08-07T09:41:39;1.10;;;1.10;;
4186;SDS011;2107;52.306;10.484;2023-08-07T09:44:06;0.50;;;0.50;;
4186;SDS011;2107;52.306;10.484;2023-08-07T09:46:40;0.30;;;0.30;;
4186;SDS011;2107;52.306;10.484;2023-08-07T09:49:07;0.20;;;0.20;;
4186;SDS011;2107;52.306;10.484;2023-08-07T09:51:42;0.10;;;0.10;;
4186;SDS011;2107;52.306;10.484;2023-08-07T09:54:16;0.00;;;0.00;;
4186;SDS011;2107;52.306;10.484;2023-08-07T09:56:43;0.00;;;0.00;;
4186;SDS011;2107;52.306;10.484;2023-08-07T09:59:12;0.00;;;0.00;;
4186;SDS011;2107;52.306;10.484;2023-08-07T10:01:39;0.10;;;0.10;;
4186;SDS011;2107;52.306;10.484;2023-08-07T10:04:09;0.10;;;0.10;;
4186;SDS011;2107;52.306;10.484;2023-08-07T10:06:40;0.10;;;0.10;;
4186;SDS011;2107;52.306;10.484;2023-08-07T10:09:08;0.30;;;0.30;;
4186;SDS011;2107;52.306;10.484;2023-08-07T10:11:37;0.60;;;0.60;;
4186;SDS011;2107;52.306;10.484;2023-08-07T10:14:05;1.00;;;1.00;;
4186;SDS011;2107;52.306;10.484;2023-08-07T10:16:32;1.80;;;1.80;;
4186;SDS011;2107;52.306;10.484;2023-08-07T10:19:04;2.20;;;2.20;;
4186;SDS011;2107;52.306;10.484;2023-08-07T10:21:31;2.00;;;2.00;;
4186;SDS011;2107;52.306;10.484;2023-08-07T10:24:01;1.50;;;1.50;;
4186;SDS011;2107;52.306;10.484;2023-08-07T10:26:30;1.80;;;1.80;;
4186;SDS011;2107;52.306;10.484;2023-08-07T10:28:59;1.33;;;1.33;;
4186;SDS011;2107;52.306;10.484;2023-08-07T10:31:28;1.40;;;1.40;;
4186;SDS011;2107;52.306;10.484;2023-08-07T10:33:56;1.30;;;1.30;;
4186;SDS011;2107;52.306;10.484;2023-08-07T10:36:23;1.37;;;1.37;;
4186;SDS011;2107;52.306;10.484;2023-08-07T10:39:05;1.10;;;1.10;;
4186;SDS011;2107;52.306;10.484;2023-08-07T10:41:37;1.20;;;1.20;;
4186;SDS011;2107;52.306;10.484;2023-08-07T10:44:08;1.23;;;1.23;;
4186;SDS011;2107;52.306;10.484;2023-08-07T10:46:47;1.30;;;1.30;;
4186;SDS011;2107;52.306;10.484;2023-08-07T10:52:01;1.07;;;1.07;;
4186;SDS011;2107;52.306;10.484;2023-08-07T10:54:29;1.00;;;1.00;;
4186;SDS011;2107;52.306;10.484;2023-08-07T10:56:56;0.70;;;0.70;;
4186;SDS011;2107;52.306;10.484;2023-08-07T10:59:27;0.60;;;0.60;;
4186;SDS011;2107;52.306;10.484;2023-08-07T11:01:56;0.50;;;0.50;;
4186;SDS011;2107;52.306;10.484;2023-08-07T11:04:23;0.47;;;0.47;;
4186;SDS011;2107;52.306;10.484;2023-08-07T11:06:51;0.50;;;0.50;;
4186;SDS011;2107;52.306;10.484;2023-08-07T11:09:18;0.50;;;0.50;;
4186;SDS011;2107;52.306;10.484;2023-08-07T11:11:45;0.30;;;0.30;;
4186;SDS011;2107;52.306;10.484;2023-08-07T11:14:14;0.40;;;0.40;;
4186;SDS011;2107;52.306;10.484;2023-08-07T11:16:44;0.80;;;0.80;;
4186;SDS011;2107;52.306;10.484;2023-08-07T11:19:12;0.80;;;0.80;;
4186;SDS011;2107;52.306;10.484;2023-08-07T11:21:40;0.50;;;0.50;;
4186;SDS011;2107;52.306;10.484;2023-08-07T11:24:08;0.30;;;0.30;;
4186;SDS011;2107;52.306;10.484;2023-08-07T11:26:36;0.40;;;0.40;;
4186;SDS011;2107;52.306;10.484;2023-08-07T11:29:03;0.73;;;0.73;;
4186;SDS011;2107;52.306;10.484;2023-08-07T11:31:30;0.90;;;0.90;;
4186;SDS011;2107;52.306;10.484;2023-08-07T11:33:59;1.10;;;1.10;;
4186;SDS011;2107;52.306;10.484;2023-08-07T11:36:27;1.60;;;1.60;;
4186;SDS011;2107;52.306;10.484;2023-08-07T11:38:54;1.50;;;1.50;;
4186;SDS011;2107;52.306;10.484;2023-08-07T11:41:21;1.73;;;1.73;;
4186;SDS011;2107;52.306;10.484;2023-08-07T11:43:48;1.50;;;1.50;;
4186;SDS011;2107;52.306;10.484;2023-08-07T11:46:15;2.20;;;2.20;;
4186;SDS011;2107;52.306;10.484;2023-08-07T11:48:42;1.90;;;1.90;;
4186;SDS011;2107;52.306;10.484;2023-08-07T11:51:11;1.63;;;1.63;;
4186;SDS011;2107;52.306;10.484;2023-08-07T11:53:39;1.53;;;1.53;;
4186;SDS011;2107;52.306;10.484;2023-08-07T11:56:08;2.40;;;2.40;;
4186;SDS011;2107;52.306;10.484;2023-08-07T11:58:36;1.87;;;1.87;;
4186;SDS011;2107;52.306;10.484;2023-08-07T12:01:05;1.90;;;1.90;;
4186;SDS011;2107;52.306;10.484;2023-08-07T12:03:33;1.70;;;1.70;;
4186;SDS011;2107;52.306;10.484;2023-08-07T12:06:04;1.70;;;1.70;;
4186;SDS011;2107;52.306;10.484;2023-08-07T12:08:33;1.33;;;1.33;;
4186;SDS011;2107;52.306;10.484;2023-08-07T12:11:01;1.10;;;1.10;;
4186;SDS011;2107;52.306;10.484;2023-08-07T12:13:30;1.23;;;1.23;;
4186;SDS011;2107;52.306;10.484;2023-08-07T12:16:00;1.33;;;1.33;;
4186;SDS011;2107;52.306;10.484;2023-08-07T12:18:29;1.60;;;1.60;;
4186;SDS011;2107;52.306;10.484;2023-08-07T12:20:56;1.33;;;1.33;;
4186;SDS011;2107;52.306;10.484;2023-08-07T12:23:25;1.10;;;1.10;;
4186;SDS011;2107;52.306;10.484;2023-08-07T12:25:53;1.10;;;1.10;;
4186;SDS011;2107;52.306;10.484;2023-08-07T12:28:20;1.30;;;1.30;;
4186;SDS011;2107;52.306;10.484;2023-08-07T12:30:47;0.90;;;0.90;;
4186;SDS011;2107;52.306;10.484;2023-08-07T12:33:16;0.90;;;0.90;;
4186;SDS011;2107;52.306;10.484;2023-08-07T12:35:44;1.10;;;1.10;;
4186;SDS011;2107;52.306;10.484;2023-08-07T12:38:11;0.70;;;0.70;;
4186;SDS011;2107;52.306;10.484;2023-08-07T12:40:39;0.90;;;0.90;;
4186;SDS011;2107;52.306;10.484;2023-08-07T12:43:09;0.90;;;0.90;;
4186;SDS011;2107;52.306;10.484;2023-08-07T12:45:36;1.00;;;1.00;;
4186;SDS011;2107;52.306;10.484;2023-08-07T12:48:03;0.83;;;0.83;;
4186;SDS011;2107;52.306;10.484;2023-08-07T12:50:30;0.70;;;0.70;;
4186;SDS011;2107;52.306;10.484;2023-08-07T12:52:57;0.80;;;0.80;;
4186;SDS011;2107;52.306;10.484;2023-08-07T12:55:24;0.70;;;0.70;;
4186;SDS011;2107;52.306;10.484;2023-08-07T12:57:53;0.80;;;0.80;;
4186;SDS011;2107;52.306;10.484;2023-08-07T13:00:21;0.90;;;0.90;;
4186;SDS011;2107;52.306;10.484;2023-08-07T13:02:49;0.80;;;0.80;;
4186;SDS011;2107;52.306;10.484;2023-08-07T13:05:17;0.80;;;0.80;;
4186;SDS011;2107;52.306;10.484;2023-08-07T13:07:44;0.70;;;0.70;;
4186;SDS011;2107;52.306;10.484;2023-08-07T13:10:13;0.70;;;0.70;;
4186;SDS011;2107;52.306;10.484;2023-08-07T13:12:41;0.70;;;0.70;;
4186;SDS011;2107;52.306;10.484;2023-08-07T13:15:10;0.77;;;0.77;;
4186;SDS011;2107;52.306;10.484;2023-08-07T13:17:40;0.60;;;0.60;;
4186;SDS011;2107;52.306;10.484;2023-08-07T13:20:08;0.80;;;0.80;;
4186;SDS011;2107;52.306;10.484;2023-08-07T13:22:38;0.80;;;0.80;;
4186;SDS011;2107;52.306;10.484;2023-08-07T13:25:05;0.70;;;0.70;;
4186;SDS011;2107;52.306;10.484;2023-08-07T13:27:33;0.90;;;0.90;;
4186;SDS011;2107;52.306;10.484;2023-08-07T13:30:01;0.70;;;0.70;;
4186;SDS011;2107;52.306;10.484;2023-08-07T13:32:28;0.90;;;0.90;;
4186;SDS011;2107;52.306;10.484;2023-08-07T13:34:58;0.90;;;0.90;;
4186;SDS011;2107;52.306;10.484;2023-08-07T13:37:25;0.80;;;0.80;;
4186;SDS011;2107;52.306;10.484;2023-08-07T13:39:52;0.93;;;0.93;;
4186;SDS011;2107;52.306;10.484;2023-08-07T13:42:19;1.10;;;1.10;;
4186;SDS011;2107;52.306;10.484;2023-08-07T13:44:49;1.00;;;1.00;;
4186;SDS011;2107;52.306;10.484;2023-08-07T13:47:16;0.90;;;0.90;;
4186;SDS011;2107;52.306;10.484;2023-08-07T13:49:45;0.80;;;0.80;;
4186;SDS011;2107;52.306;10.484;2023-08-07T13:52:14;0.90;;;0.90;;
4186;SDS011;2107;52.306;10.484;2023-08-07T13:54:41;1.10;;;1.10;;
4186;SDS011;2107;52.306;10.484;2023-08-07T13:57:08;0.90;;;0.90;;
4186;SDS011;2107;52.306;10.484;2023-08-07T13:59:35;1.00;;;1.00;;
4186;SDS011;2107;52.306;10.484;2023-08-07T14:02:02;0.60;;;0.60;;
4186;SDS011;2107;52.306;10.484;2023-08-07T14:04:29;0.70;;;0.70;;
4186;SDS011;2107;52.306;10.484;2023-08-07T14:06:56;0.70;;;0.70;;
4186;SDS011;2107;52.306;10.484;2023-08-07T14:09:25;0.80;;;0.80;;
4186;SDS011;2107;52.306;10.484;2023-08-07T14:11:52;0.70;;;0.70;;
4186;SDS011;2107;52.306;10.484;2023-08-07T14:14:18;0.60;;;0.60;;
4186;SDS011;2107;52.306;10.484;2023-08-07T14:16:45;0.60;;;0.60;;
4186;SDS011;2107;52.306;10.484;2023-08-07T14:19:13;0.57;;;0.57;;
4186;SDS011;2107;52.306;10.484;2023-08-07T14:21:40;0.70;;;0.70;;
4186;SDS011;2107;52.306;10.484;2023-08-07T14:24:07;0.60;;;0.60;;
4186;SDS011;2107;52.306;10.484;2023-08-07T14:26:35;0.70;;;0.70;;
4186;SDS011;2107;52.306;10.484;2023-08-07T14:29:02;0.80;;;0.80;;
4186;SDS011;2107;52.306;10.484;2023-08-07T14:31:29;1.10;;;1.10;;
4186;SDS011;2107;52.306;10.484;2023-08-07T14:33:55;1.10;;;1.10;;
4186;SDS011;2107;52.306;10.484;2023-08-07T14:36:22;1.10;;;1.10;;
4186;SDS011;2107;52.306;10.484;2023-08-07T14:38:49;1.50;;;1.50;;
4186;SDS011;2107;52.306;10.484;2023-08-07T14:41:16;1.40;;;1.40;;
4186;SDS011;2107;52.306;10.484;2023-08-07T14:43:45;1.77;;;1.77;;
4186;SDS011;2107;52.306;10.484;2023-08-07T14:46:13;1.50;;;1.50;;
4186;SDS011;2107;52.306;10.484;2023-08-07T14:48:40;1.30;;;1.30;;
4186;SDS011;2107;52.306;10.484;2023-08-07T14:51:06;1.40;;;1.40;;
4186;SDS011;2107;52.306;10.484;2023-08-07T14:53:33;1.30;;;1.30;;
4186;SDS011;2107;52.306;10.484;2023-08-07T14:56:00;0.90;;;0.90;;
4186;SDS011;2107;52.306;10.484;2023-08-07T14:58:27;1.37;;;1.37;;
4186;SDS011;2107;52.306;10.484;2023-08-07T15:00:56;1.00;;;1.00;;
4186;SDS011;2107;52.306;10.484;2023-08-07T15:03:23;0.73;;;0.73;;
4186;SDS011;2107;52.306;10.484;2023-08-07T15:05:50;1.10;;;1.10;;